Time;durP1;ratioP1;P1;durP2;ratioP2;P2;SDS_P1;SDS_P2;PMS_P1;PMS_P2;Temp;Humidity;BMP_temperature;BMP_pressure;BME280_temperature;BME280_humidity;BME280_pressure;Samples;Min_cycle;Max_cycle;Signal;HPM_P1;HPM_P2
2023/10/07 00:00:59;;;;;;;12.88;3.70;;;;;;;;;;5023700;28;20060;-70
2023/10/07 00:03:20;;;;;;;5.35;3.83;;;;;;;;;;5019277;28;20600;-70
2023/10/07 00:05:47;;;;;;;12.80;4.20;;;;;;;;;;5020322;28;20045;-70
2023/10/07 00:08:16;;;;;;;8.27;4.88;;;;;;;;;;5025896;28;20233;-70
2023/10/07 00:10:47;;;;;;;6.53;3.60;;;;;;;;;;5024125;28;20023;-70
2023/10/07 00:13:13;;;;;;;8.18;4.28;;;;;;;;;;5028019;28;20025;-69
2023/10/07 00:15:46;;;;;;;6.68;3.45;;;;;;;;;;5019384;28;20025;-70
2023/10/07 00:18:13;;;;;;;7.95;4.35;;;;;;;;;;5025434;28;20059;-70
2023/10/07 00:20:44;;;;;;;7.13;3.85;;;;;;;;;;5021409;28;20429;-70
2023/10/07 00:23:12;;;;;;;10.50;4.40;;;;;;;;;;5023667;28;20087;-70
2023/10/07 00:25:38;;;;;;;9.82;3.78;;;;;;;;;;5020328;28;20053;-70
2023/10/07 00:28:17;;;;;;;7.13;4.10;;;;;;;;;;5024117;28;20025;-71
2023/10/07 00:30:45;;;;;;;10.15;4.35;;;;;;;;;;5011103;28;20061;-70
2023/10/07 00:33:12;;;;;;;8.18;3.80;;;;;;;;;;5023081;28;20028;-70
2023/10/07 00:35:38;;;;;;;8.00;4.00;;;;;;;;;;5026618;28;20025;-70
2023/10/07 00:38:04;;;;;;;13.30;4.55;;;;;;;;;;5037499;28;20099;-70
2023/10/07 00:42:57;;;;;;;7.10;4.18;;;;;;;;;;5024186;28;20026;-70
2023/10/07 00:45:25;;;;;;;8.93;4.50;;;;;;;;;;5022759;28;20029;-69
2023/10/07 00:47:53;;;;;;;6.57;4.18;;;;;;;;;;5020476;28;20022;-71
2023/10/07 00:50:22;;;;;;;5.28;3.42;;;;;;;;;;5027134;28;20386;-70
2023/10/07 00:55:22;;;;;;;9.73;3.55;;;;;;;;;;5024450;28;20065;-71
2023/10/07 00:57:51;;;;;;;9.93;3.92;;;;;;;;;;5022065;28;20087;-71
2023/10/07 01:03:05;;;;;;;;;;;;;;;;;;5020789;28;20537;-70
2023/10/07 01:05:33;;;;;;;9.80;3.78;;;;;;;;;;5019534;28;19916;-70
2023/10/07 01:07:59;;;;;;;9.38;3.88;;;;;;;;;;5021594;28;20029;-70
2023/10/07 01:10:28;;;;;;;9.13;3.67;;;;;;;;;;5022945;28;20030;-70
2023/10/07 01:12:59;;;;;;;10.98;4.15;;;;;;;;;;5016171;28;20037;-70
2023/10/07 01:15:26;;;;;;;7.40;3.50;;;;;;;;;;5015913;28;20041;-70
2023/10/07 01:17:56;;;;;;;8.13;4.13;;;;;;;;;;5024041;28;20622;-70
2023/10/07 01:20:25;;;;;;;7.97;3.50;;;;;;;;;;5025036;28;20017;-70
2023/10/07 01:23:04;;;;;;;9.02;3.80;;;;;;;;;;5021740;28;20030;-70
2023/10/07 01:25:43;;;;;;;9.38;4.25;;;;;;;;;;5019057;28;20736;-70
2023/10/07 01:28:14;;;;;;;7.68;3.30;;;;;;;;;;5016753;28;20374;-70
2023/10/07 01:30:47;;;;;;;12.30;4.38;;;;;;;;;;5013718;28;20032;-70
2023/10/07 01:33:25;;;;;;;9.35;3.58;;;;;;;;;;5022023;28;20064;-70
2023/10/07 01:36:08;;;;;;;12.80;4.00;;;;;;;;;;5014757;28;20481;-70
2023/10/07 01:38:40;;;;;;;8.00;4.10;;;;;;;;;;5025859;28;20490;-70
2023/10/07 01:41:07;;;;;;;9.38;5.45;;;;;;;;;;5018792;28;20045;-69
2023/10/07 01:43:48;;;;;;;7.95;4.40;;;;;;;;;;5015409;28;20031;-70
2023/10/07 01:46:19;;;;;;;6.40;3.58;;;;;;;;;;5020720;28;20544;-71
2023/10/07 01:48:57;;;;;;;7.20;3.70;;;;;;;;;;5022100;28;20480;-70
2023/10/07 01:51:27;;;;;;;7.38;3.55;;;;;;;;;;5022663;28;20120;-70
2023/10/07 01:53:57;;;;;;;5.90;3.60;;;;;;;;;;5020506;28;20029;-70
2023/10/07 01:56:26;;;;;;;8.65;3.53;;;;;;;;;;5022076;28;20033;-70
2023/10/07 01:58:53;;;;;;;9.38;3.45;;;;;;;;;;5018641;28;20029;-70
2023/10/07 02:01:22;;;;;;;7.20;3.67;;;;;;;;;;5022996;28;20028;-70
2023/10/07 02:03:48;;;;;;;9.50;3.88;;;;;;;;;;5010454;28;20022;-70
2023/10/07 02:06:18;;;;;;;9.80;4.32;;;;;;;;;;5021526;28;20033;-70
2023/10/07 02:08:46;;;;;;;8.90;3.88;;;;;;;;;;5020693;28;20037;-70
2023/10/07 02:11:17;;;;;;;11.18;4.40;;;;;;;;;;5016571;28;20032;-71
2023/10/07 02:13:45;;;;;;;8.70;3.63;;;;;;;;;;5017271;28;20025;-71
2023/10/07 02:16:11;;;;;;;6.40;4.10;;;;;;;;;;5015635;28;20036;-70
2023/10/07 02:18:37;;;;;;;5.82;3.40;;;;;;;;;;5006053;28;20037;-70
2023/10/07 02:26:06;;;;;;;9.80;3.92;;;;;;;;;;5022130;28;20556;-70
2023/10/07 02:28:35;;;;;;;11.02;4.18;;;;;;;;;;5018982;28;20087;-70
2023/10/07 02:31:08;;;;;;;8.90;4.60;;;;;;;;;;5020002;28;20036;-71
2023/10/07 02:33:42;;;;;;;9.07;3.88;;;;;;;;;;5033177;28;20055;-70
2023/10/07 02:36:13;;;;;;;11.73;4.82;;;;;;;;;;5021985;28;20041;-70
2023/10/07 02:38:42;;;;;;;5.47;3.40;;;;;;;;;;5027144;28;20535;-70
2023/10/07 02:41:17;;;;;;;9.95;4.28;;;;;;;;;;5027633;28;20766;-70
2023/10/07 02:43:48;;;;;;;8.25;3.92;;;;;;;;;;5020262;28;20026;-70
2023/10/07 02:46:27;;;;;;;9.32;3.60;;;;;;;;;;5029243;28;20489;-70
2023/10/07 02:49:01;;;;;;;8.20;3.47;;;;;;;;;;5030667;28;20033;-71
2023/10/07 02:51:27;;;;;;;8.25;3.80;;;;;;;;;;5023529;28;20065;-69
2023/10/07 02:54:00;;;;;;;13.30;3.88;;;;;;;;;;5019541;28;20523;-71
2023/10/07 02:56:29;;;;;;;9.80;4.25;;;;;;;;;;5029951;28;20053;-69
2023/10/07 02:59:03;;;;;;;8.63;4.00;;;;;;;;;;5032855;28;20024;-72
2023/10/07 03:01:29;;;;;;;8.73;4.00;;;;;;;;;;5026479;28;20044;-72
2023/10/07 03:04:00;;;;;;;6.63;3.38;;;;;;;;;;5018686;28;20072;-71
2023/10/07 03:06:28;;;;;;;7.68;3.75;;;;;;;;;;5023469;28;20013;-71
2023/10/07 03:09:00;;;;;;;8.25;3.70;;;;;;;;;;5024215;28;20029;-70
2023/10/07 03:11:48;;;;;;;7.60;3.95;;;;;;;;;;5024351;28;20030;-69
2023/10/07 03:14:23;;;;;;;8.88;3.47;;;;;;;;;;5041267;28;20041;-70
2023/10/07 03:16:59;;;;;;;7.80;3.65;;;;;;;;;;5023026;28;20033;-70
2023/10/07 03:19:33;;;;;;;7.45;3.63;;;;;;;;;;5036588;28;20037;-70
2023/10/07 03:22:15;;;;;;;6.30;3.53;;;;;;;;;;5024403;28;20432;-70
2023/10/07 03:24:41;;;;;;;5.78;3.85;;;;;;;;;;5024273;28;20018;-69
2023/10/07 03:27:11;;;;;;;8.13;3.50;;;;;;;;;;5023639;28;20033;-69
2023/10/07 03:29:57;;;;;;;5.55;3.58;;;;;;;;;;5022283;28;20602;-70
2023/10/07 03:32:24;;;;;;;8.10;3.72;;;;;;;;;;5032661;28;20033;-70
2023/10/07 03:34:50;;;;;;;7.55;3.88;;;;;;;;;;5026122;28;20025;-70
2023/10/07 03:37:16;;;;;;;7.47;3.30;;;;;;;;;;5030158;28;20532;-70
2023/10/07 03:40:34;;;;;;;11.98;3.70;;;;;;;;;;5016250;28;20494;-70
2023/10/07 03:42:30;;;;;;;6.63;3.10;;;;;;;;;;5023303;28;20501;-69
2023/10/07 03:44:56;;;;;;;7.00;3.78;;;;;;;;;;5020599;28;20095;-70
2023/10/07 03:47:25;;;;;;;6.28;3.22;;;;;;;;;;5025195;28;20109;-70
2023/10/07 03:49:58;;;;;;;12.55;4.45;;;;;;;;;;5018720;28;20421;-70
2023/10/07 03:52:27;;;;;;;6.30;3.63;;;;;;;;;;5023613;28;20035;-70
2023/10/07 03:54:56;;;;;;;8.52;4.18;;;;;;;;;;5024543;28;20029;-70
2023/10/07 03:57:24;;;;;;;8.50;3.50;;;;;;;;;;5023392;28;20057;-69
2023/10/07 03:59:52;;;;;;;6.65;3.35;;;;;;;;;;5023567;28;20025;-70
2023/10/07 04:02:36;;;;;;;12.63;3.65;;;;;;;;;;5023716;28;20075;-69
2023/10/07 04:05:10;;;;;;;8.32;3.40;;;;;;;;;;5021892;28;20489;-70
2023/10/07 04:07:36;;;;;;;6.80;3.28;;;;;;;;;;5021331;28;20084;-70
2023/10/07 04:10:12;;;;;;;7.75;3.28;;;;;;;;;;5017661;28;20104;-70
2023/10/07 04:12:39;;;;;;;5.72;3.35;;;;;;;;;;5020043;28;20029;-70
2023/10/07 04:15:09;;;;;;;6.30;3.30;;;;;;;;;;5010966;28;20084;-70
2023/10/07 04:17:38;;;;;;;6.95;3.80;;;;;;;;;;5022615;28;20029;-69
2023/10/07 04:20:18;;;;;;;8.15;3.53;;;;;;;;;;5016743;28;20022;-70
2023/10/07 04:22:44;;;;;;;6.45;3.45;;;;;;;;;;5019048;28;20606;-70
2023/10/07 04:25:17;;;;;;;5.05;3.45;;;;;;;;;;5019994;28;20041;-70
2023/10/07 04:27:43;;;;;;;5.00;3.30;;;;;;;;;;5020200;28;20418;-69
2023/10/07 04:30:13;;;;;;;6.35;3.70;;;;;;;;;;5022030;28;20030;-70
2023/10/07 04:32:52;;;;;;;6.60;3.55;;;;;;;;;;5023158;28;20052;-69
2023/10/07 04:35:20;;;;;;;5.07;3.60;;;;;;;;;;5022956;28;20120;-70
2023/10/07 04:37:54;;;;;;;11.27;4.05;;;;;;;;;;5024738;28;20123;-69
2023/10/07 04:45:43;;;;;;;11.17;3.83;;;;;;;;;;5020482;28;20087;-70
2023/10/07 04:48:24;;;;;;;8.73;4.70;;;;;;;;;;5022775;28;20048;-69
2023/10/07 04:51:03;;;;;;;6.65;4.25;;;;;;;;;;5021338;28;20030;-70
2023/10/07 04:53:39;;;;;;;8.43;3.65;;;;;;;;;;5024011;28;20041;-70
2023/10/07 04:56:09;;;;;;;8.30;4.07;;;;;;;;;;5019436;28;20049;-70
2023/10/07 04:58:39;;;;;;;8.63;3.65;;;;;;;;;;5018384;28;20559;-70
2023/10/07 05:03:58;;;;;;;7.78;4.05;;;;;;;;;;5022452;28;20172;-69
2023/10/07 05:06:25;;;;;;;6.63;3.72;;;;;;;;;;5015443;28;20026;-71
2023/10/07 05:08:51;;;;;;;7.07;3.45;;;;;;;;;;5019866;28;20044;-71
2023/10/07 05:11:18;;;;;;;6.57;3.58;;;;;;;;;;5025804;28;20112;-70
2023/10/07 05:13:45;;;;;;;5.88;3.45;;;;;;;;;;5017657;28;20025;-70
2023/10/07 05:16:13;;;;;;;8.90;3.53;;;;;;;;;;5015472;28;20496;-70
2023/10/07 05:18:39;;;;;;;8.65;4.30;;;;;;;;;;5019058;28;20041;-70
2023/10/07 05:21:06;;;;;;;6.80;4.03;;;;;;;;;;5016447;28;20385;-70
2023/10/07 05:23:33;;;;;;;7.55;3.50;;;;;;;;;;5019249;28;20029;-69
2023/10/07 05:26:09;;;;;;;5.57;3.80;;;;;;;;;;5021846;28;20025;-70
2023/10/07 05:28:35;;;;;;;;;;;;;;;;;;5015256;28;20543;-70
2023/10/07 05:31:03;;;;;;;5.30;3.95;;;;;;;;;;5012422;28;20035;-69
2023/10/07 05:33:32;;;;;;;6.70;3.97;;;;;;;;;;5013201;28;20338;-71
2023/10/07 05:36:14;;;;;;;11.40;3.67;;;;;;;;;;5014425;28;20029;-70
2023/10/07 05:38:40;;;;;;;7.93;3.72;;;;;;;;;;5015989;28;20436;-70
2023/10/07 05:41:12;;;;;;;7.95;3.88;;;;;;;;;;5019337;28;20038;-70
2023/10/07 05:43:39;;;;;;;5.78;3.38;;;;;;;;;;5017824;28;20120;-70
2023/10/07 05:46:05;;;;;;;7.60;3.40;;;;;;;;;;5015320;28;20061;-69
2023/10/07 05:48:31;;;;;;;9.65;4.00;;;;;;;;;;5015417;28;20175;-68
2023/10/07 05:50:57;;;;;;;6.47;3.78;;;;;;;;;;5020461;28;20048;-69
2023/10/07 05:53:24;;;;;;;8.80;3.60;;;;;;;;;;5018302;28;20033;-70
2023/10/07 05:55:53;;;;;;;7.63;3.63;;;;;;;;;;5015754;28;20041;-69
2023/10/07 05:58:20;;;;;;;6.82;3.83;;;;;;;;;;5013820;28;20036;-69
2023/10/07 06:00:47;;;;;;;7.10;3.60;;;;;;;;;;5017172;28;20508;-69
2023/10/07 06:03:13;;;;;;;13.80;4.85;;;;;;;;;;5020795;28;20032;-69
2023/10/07 06:05:39;;;;;;;10.52;3.95;;;;;;;;;;5016056;28;20026;-69
2023/10/07 06:08:07;;;;;;;5.35;3.30;;;;;;;;;;5018773;28;20033;-69
2023/10/07 06:10:33;;;;;;;5.57;3.22;;;;;;;;;;5023580;28;20026;-70
2023/10/07 06:13:09;;;;;;;7.93;3.80;;;;;;;;;;5024185;28;20025;-70
2023/10/07 06:15:38;;;;;;;5.10;3.50;;;;;;;;;;5024915;28;20515;-71
2023/10/07 06:18:07;;;;;;;9.05;3.30;;;;;;;;;;5023469;28;20290;-71
2023/10/07 06:20:46;;;;;;;6.68;3.35;;;;;;;;;;5018025;28;20037;-71
2023/10/07 06:23:16;;;;;;;6.63;3.88;;;;;;;;;;5022877;28;20108;-71
2023/10/07 06:25:48;;;;;;;6.90;3.50;;;;;;;;;;5024704;28;20028;-70
2023/10/07 06:28:29;;;;;;;6.50;3.35;;;;;;;;;;5020078;28;20032;-70
2023/10/07 06:31:12;;;;;;;7.03;3.88;;;;;;;;;;5027729;28;20052;-71
2023/10/07 06:33:42;;;;;;;10.02;3.78;;;;;;;;;;5027379;28;20921;-71
2023/10/07 06:36:10;;;;;;;6.97;3.17;;;;;;;;;;5024095;28;20037;-71
2023/10/07 06:38:45;;;;;;;8.88;4.40;;;;;;;;;;5026561;28;20030;-70
2023/10/07 06:41:11;;;;;;;6.10;4.05;;;;;;;;;;5027679;28;20041;-71
2023/10/07 06:43:38;;;;;;;6.80;3.33;;;;;;;;;;5029638;28;20112;-71
2023/10/07 06:46:10;;;;;;;5.43;3.58;;;;;;;;;;5025108;28;20083;-71
2023/10/07 06:48:37;;;;;;;5.43;3.10;;;;;;;;;;5019051;28;20045;-71
2023/10/07 06:51:05;;;;;;;5.55;2.92;;;;;;;;;;5028068;28;20047;-70
2023/10/07 06:53:32;;;;;;;7.60;4.25;;;;;;;;;;5024506;28;20026;-71
2023/10/07 06:55:58;;;;;;;6.30;3.35;;;;;;;;;;5023126;28;20065;-71
2023/10/07 06:58:25;;;;;;;9.15;3.50;;;;;;;;;;5025663;28;20025;-71
2023/10/07 07:00:56;;;;;;;7.55;3.63;;;;;;;;;;5021505;28;20026;-72
2023/10/07 07:03:25;;;;;;;3.78;3.03;;;;;;;;;;5021556;28;20041;-71
2023/10/07 07:05:51;;;;;;;5.40;3.28;;;;;;;;;;5024896;28;20134;-72
2023/10/07 07:08:22;;;;;;;5.38;3.30;;;;;;;;;;5025588;28;20063;-73
2023/10/07 07:10:55;;;;;;;5.15;3.28;;;;;;;;;;5029350;28;20466;-71
2023/10/07 07:13:27;;;;;;;8.07;3.90;;;;;;;;;;5029391;28;20017;-71
2023/10/07 07:15:57;;;;;;;12.90;3.97;;;;;;;;;;5024417;28;20075;-71
2023/10/07 07:18:27;;;;;;;7.07;3.85;;;;;;;;;;5023235;28;20087;-71
2023/10/07 07:21:00;;;;;;;9.18;3.50;;;;;;;;;;5025678;28;20079;-71
2023/10/07 07:23:35;;;;;;;8.32;3.67;;;;;;;;;;5033027;28;20022;-71
2023/10/07 07:28:30;;;;;;;7.10;3.53;;;;;;;;;;5037617;28;20068;-71
2023/10/07 07:31:00;;;;;;;9.80;4.20;;;;;;;;;;5028070;28;20397;-71
2023/10/07 07:33:34;;;;;;;5.82;3.65;;;;;;;;;;5029209;28;20030;-72
2023/10/07 07:36:06;;;;;;;8.88;3.30;;;;;;;;;;5021787;28;20032;-71
2023/10/07 07:38:43;;;;;;;9.18;3.30;;;;;;;;;;5025781;28;20548;-71
2023/10/07 07:41:10;;;;;;;8.57;3.88;;;;;;;;;;5033598;28;20053;-71
2023/10/07 07:43:37;;;;;;;5.15;3.33;;;;;;;;;;5026233;28;20068;-73
2023/10/07 07:46:26;;;;;;;7.65;3.80;;;;;;;;;;5029558;28;20076;-71
2023/10/07 07:48:54;;;;;;;11.27;4.25;;;;;;;;;;5025003;28;20409;-71
2023/10/07 07:51:24;;;;;;;8.93;3.65;;;;;;;;;;5023977;28;20096;-70
2023/10/07 07:53:50;;;;;;;6.03;3.47;;;;;;;;;;5025745;28;20018;-71
2023/10/07 07:56:18;;;;;;;9.93;3.70;;;;;;;;;;5030809;28;20032;-71
2023/10/07 07:58:47;;;;;;;6.28;3.67;;;;;;;;;;5028278;28;20025;-71
2023/10/07 08:01:28;;;;;;;10.40;3.60;;;;;;;;;;5032874;28;20022;-71
2023/10/07 08:03:55;;;;;;;8.85;3.97;;;;;;;;;;5022934;28;20034;-71
2023/10/07 08:06:25;;;;;;;10.25;3.45;;;;;;;;;;5026452;28;20056;-71
2023/10/07 08:08:55;;;;;;;8.10;4.07;;;;;;;;;;5025654;28;20033;-71
2023/10/07 08:11:21;;;;;;;8.57;4.00;;;;;;;;;;5024438;28;20091;-71
2023/10/07 08:13:48;;;;;;;10.35;4.57;;;;;;;;;;5039973;28;20029;-71
2023/10/07 08:16:19;;;;;;;6.00;3.70;;;;;;;;;;5041618;28;20030;-71
2023/10/07 08:18:48;;;;;;;9.95;4.10;;;;;;;;;;5023869;28;20060;-71
2023/10/07 08:21:14;;;;;;;11.88;4.35;;;;;;;;;;5022422;28;20389;-71
2023/10/07 08:23:41;;;;;;;7.25;3.95;;;;;;;;;;5027382;28;20755;-70
2023/10/07 08:26:20;;;;;;;7.93;3.72;;;;;;;;;;5024737;28;20102;-70
2023/10/07 08:28:59;;;;;;;7.85;3.58;;;;;;;;;;5021315;28;20072;-72
2023/10/07 08:31:37;;;;;;;9.55;3.88;;;;;;;;;;5028386;28;20025;-70
2023/10/07 08:36:36;;;;;;;7.20;3.67;;;;;;;;;;5029332;28;20030;-71
2023/10/07 08:39:08;;;;;;;7.13;3.30;;;;;;;;;;5026020;28;20124;-70
2023/10/07 08:41:37;;;;;;;8.23;3.63;;;;;;;;;;5022710;28;20156;-71
2023/10/07 08:44:29;;;;;;;8.20;3.38;;;;;;;;;;5031209;28;20017;-71
2023/10/07 08:46:53;;;;;;;7.30;3.40;;;;;;;;;;5024867;28;20045;-70
2023/10/07 08:49:26;;;;;;;8.98;4.25;;;;;;;;;;5020490;28;20112;-71
2023/10/07 08:51:56;;;;;;;9.18;3.72;;;;;;;;;;5029272;28;20084;-71
2023/10/07 08:54:31;;;;;;;7.57;3.83;;;;;;;;;;5027356;28;20414;-71
2023/10/07 08:57:08;;;;;;;8.25;4.03;;;;;;;;;;5025466;28;20025;-71
2023/10/07 08:59:35;;;;;;;11.02;3.58;;;;;;;;;;5032832;28;20057;-71
2023/10/07 09:02:03;;;;;;;8.52;3.58;;;;;;;;;;5025605;28;20084;-71
2023/10/07 09:04:31;;;;;;;7.28;3.70;;;;;;;;;;5024516;28;20025;-71
2023/10/07 09:07:08;;;;;;;7.32;3.50;;;;;;;;;;5030546;28;20038;-71
2023/10/07 09:09:44;;;;;;;9.32;3.72;;;;;;;;;;5022610;28;20029;-71
2023/10/07 09:14:51;;;;;;;6.93;3.35;;;;;;;;;;5024971;28;20034;-71
2023/10/07 09:17:20;;;;;;;5.68;3.38;;;;;;;;;;5012840;28;20031;-67
2023/10/07 09:19:48;;;;;;;8.35;3.67;;;;;;;;;;5020224;28;20752;-68
2023/10/07 09:22:18;;;;;;;9.77;4.30;;;;;;;;;;5021533;28;20021;-67
2023/10/07 09:24:44;;;;;;;7.53;3.58;;;;;;;;;;5022377;28;20025;-68
2023/10/07 09:27:15;;;;;;;8.60;3.40;;;;;;;;;;5023008;28;20029;-67
2023/10/07 09:29:49;;;;;;;10.77;3.63;;;;;;;;;;5023674;28;20045;-70
2023/10/07 09:32:21;;;;;;;6.70;3.75;;;;;;;;;;5019823;28;20037;-67
2023/10/07 09:34:47;;;;;;;9.27;3.50;;;;;;;;;;5024055;28;20026;-67
2023/10/07 09:37:17;;;;;;;9.18;4.13;;;;;;;;;;5017716;28;20057;-67
2023/10/07 09:39:44;;;;;;;8.80;3.53;;;;;;;;;;5024596;28;20044;-67
2023/10/07 09:42:32;;;;;;;8.43;3.05;;;;;;;;;;5018967;28;20021;-68
2023/10/07 09:45:27;;;;;;;7.03;2.92;;;;;;;;;;5020649;28;20467;-67
2023/10/07 09:47:46;;;;;;;8.93;4.25;;;;;;;;;;5020384;28;20088;-66
2023/10/07 09:50:28;;;;;;;7.20;3.58;;;;;;;;;;5016295;28;20058;-66
2023/10/07 09:52:58;;;;;;;9.13;3.63;;;;;;;;;;5019605;28;20036;-66
2023/10/07 09:55:40;;;;;;;10.35;3.33;;;;;;;;;;5019326;28;21484;-68
2023/10/07 09:58:29;;;;;;;8.85;4.13;;;;;;;;;;5035867;28;20529;-66
2023/10/07 10:01:28;;;;;;;6.63;3.40;;;;;;;;;;5018255;28;20036;-66
2023/10/07 10:04:05;;;;;;;10.65;3.35;;;;;;;;;;5015987;28;20032;-66
2023/10/07 10:06:50;;;;;;;11.52;3.85;;;;;;;;;;5014783;28;20460;-70
2023/10/07 10:09:24;;;;;;;7.45;3.88;;;;;;;;;;5017651;28;20033;-71
2023/10/07 10:12:36;;;;;;;7.90;3.75;;;;;;;;;;5015355;28;20078;-69
2023/10/07 10:17:39;;;;;;;6.78;3.50;;;;;;;;;;5017710;28;20059;-70
2023/10/07 10:20:14;;;;;;;9.07;3.53;;;;;;;;;;5014361;28;20041;-72
2023/10/07 10:22:40;;;;;;;;;;;;;;;;;;5031155;28;20022;-69
2023/10/07 10:25:25;;;;;;;10.68;3.75;;;;;;;;;;5016332;28;20616;-72
2023/10/07 10:28:01;;;;;;;7.20;3.40;;;;;;;;;;5015352;28;20112;-72
2023/10/07 10:30:28;;;;;;;9.68;3.83;;;;;;;;;;5013710;28;20733;-71
2023/10/07 10:32:57;;;;;;;6.30;3.53;;;;;;;;;;5016777;28;20116;-72
2023/10/07 10:35:24;;;;;;;9.55;3.40;;;;;;;;;;5014997;28;20040;-71
2023/10/07 10:37:59;;;;;;;7.07;3.20;;;;;;;;;;5014872;28;20041;-71
2023/10/07 10:40:31;;;;;;;5.47;3.92;;;;;;;;;;5011282;28;20054;-71
2023/10/07 10:42:59;;;;;;;8.73;3.47;;;;;;;;;;5017740;28;20071;-71
2023/10/07 10:45:32;;;;;;;7.55;4.22;;;;;;;;;;5014957;28;20033;-70
2023/10/07 10:47:59;;;;;;;6.65;3.17;;;;;;;;;;5012959;28;20448;-71
2023/10/07 10:50:28;;;;;;;10.32;4.05;;;;;;;;;;5016347;28;20044;-69
2023/10/07 10:52:55;;;;;;;10.23;3.67;;;;;;;;;;5016817;28;20035;-70
2023/10/07 10:55:24;;;;;;;8.05;3.83;;;;;;;;;;5017540;28;20036;-71
2023/10/07 10:57:50;;;;;;;6.03;3.00;;;;;;;;;;5021538;28;20041;-70
2023/10/07 11:00:21;;;;;;;7.35;3.33;;;;;;;;;;5018228;28;20025;-70
2023/10/07 11:02:48;;;;;;;7.63;3.28;;;;;;;;;;5017077;28;20670;-69
2023/10/07 11:05:14;;;;;;;7.03;3.28;;;;;;;;;;5016940;28;20033;-70
2023/10/07 11:07:40;;;;;;;5.97;3.35;;;;;;;;;;5015261;28;20036;-69
2023/10/07 11:10:08;;;;;;;8.70;3.28;;;;;;;;;;5018599;28;20037;-70
2023/10/07 11:12:36;;;;;;;10.93;3.38;;;;;;;;;;5021794;28;20385;-70
2023/10/07 11:15:15;;;;;;;7.43;3.90;;;;;;;;;;5018321;28;20018;-69
2023/10/07 11:17:42;;;;;;;8.98;3.88;;;;;;;;;;5019697;28;20073;-69
2023/10/07 11:20:19;;;;;;;10.23;3.45;;;;;;;;;;5016412;28;20030;-69
2023/10/07 11:22:45;;;;;;;7.35;3.80;;;;;;;;;;5016334;28;20045;-68
2023/10/07 11:25:14;;;;;;;7.93;3.38;;;;;;;;;;5015401;28;20760;-70
2023/10/07 11:27:44;;;;;;;6.82;4.03;;;;;;;;;;5018173;28;20700;-70
2023/10/07 11:30:16;;;;;;;7.10;4.03;;;;;;;;;;5016072;28;20033;-67
2023/10/07 11:32:43;;;;;;;12.27;3.85;;;;;;;;;;5022803;28;20122;-70
2023/10/07 11:35:28;;;;;;;7.32;3.92;;;;;;;;;;5021072;28;20621;-68
2023/10/07 11:37:57;;;;;;;;;;;;;;;;;;5021224;28;20093;-68
2023/10/07 11:40:24;;;;;;;8.82;3.63;;;;;;;;;;5020928;28;20605;-68
2023/10/07 11:42:50;;;;;;;5.75;3.10;;;;;;;;;;5023733;28;20021;-69
2023/10/07 11:45:16;;;;;;;9.27;3.55;;;;;;;;;;5020259;28;20022;-68
2023/10/07 11:47:43;;;;;;;6.03;3.05;;;;;;;;;;5022514;28;20394;-69
2023/10/07 11:50:10;;;;;;;8.77;3.85;;;;;;;;;;5018642;28;20036;-68
2023/10/07 11:52:37;;;;;;;9.60;3.53;;;;;;;;;;5017646;28;20451;-68
2023/10/07 11:55:07;;;;;;;9.85;3.80;;;;;;;;;;5021344;28;20053;-68
2023/10/07 11:57:40;;;;;;;6.55;3.80;;;;;;;;;;5037682;28;20684;-68
2023/10/07 12:00:13;;;;;;;7.47;2.97;;;;;;;;;;5021215;28;20038;-68
2023/10/07 12:02:40;;;;;;;6.80;3.15;;;;;;;;;;5025334;28;20033;-68
2023/10/07 12:05:07;;;;;;;8.38;3.88;;;;;;;;;;5022306;28;20608;-68
2023/10/07 12:07:36;;;;;;;11.32;3.92;;;;;;;;;;5020729;28;20033;-68
2023/10/07 12:10:06;;;;;;;8.93;3.60;;;;;;;;;;5015288;28;20524;-68
2023/10/07 12:12:32;;;;;;;7.93;3.75;;;;;;;;;;5021445;28;20088;-68
2023/10/07 12:14:59;;;;;;;6.47;4.30;;;;;;;;;;5015339;28;20041;-67
2023/10/07 12:17:25;;;;;;;9.00;4.53;;;;;;;;;;5020566;28;20036;-69
2023/10/07 12:19:51;;;;;;;8.18;3.83;;;;;;;;;;5020851;28;20037;-67
2023/10/07 12:22:17;;;;;;;9.02;4.13;;;;;;;;;;5020828;28;20112;-68
2023/10/07 12:24:44;;;;;;;8.40;4.53;;;;;;;;;;5015532;28;20034;-68
2023/10/07 12:27:10;;;;;;;9.98;4.22;;;;;;;;;;5030569;28;20025;-68
2023/10/07 12:29:38;;;;;;;10.68;4.30;;;;;;;;;;5017988;28;20582;-69
2023/10/07 12:32:09;;;;;;;7.30;4.22;;;;;;;;;;5028681;28;20025;-71
2023/10/07 12:34:36;;;;;;;11.95;4.88;;;;;;;;;;5022944;28;20095;-70
2023/10/07 12:37:05;;;;;;;9.82;3.97;;;;;;;;;;5019324;28;20030;-69
2023/10/07 12:39:39;;;;;;;10.85;4.63;;;;;;;;;;5024045;28;20053;-72
2023/10/07 12:42:05;;;;;;;13.00;4.90;;;;;;;;;;5023286;28;20139;-70
2023/10/07 12:44:31;;;;;;;8.75;4.20;;;;;;;;;;5024740;28;20029;-69
2023/10/07 12:46:57;;;;;;;9.32;3.63;;;;;;;;;;5021889;28;20507;-70
2023/10/07 12:49:23;;;;;;;9.32;3.70;;;;;;;;;;5026896;28;20029;-69
2023/10/07 12:51:49;;;;;;;10.57;3.97;;;;;;;;;;5025848;28;20053;-69
2023/10/07 12:54:17;;;;;;;11.63;3.85;;;;;;;;;;5023022;28;20396;-70
2023/10/07 12:56:43;;;;;;;10.68;4.28;;;;;;;;;;5022102;28;20029;-70
2023/10/07 12:59:21;;;;;;;8.85;3.85;;;;;;;;;;5023652;28;20029;-70
2023/10/07 13:01:51;;;;;;;9.95;3.72;;;;;;;;;;5022617;28;20033;-70
2023/10/07 13:04:25;;;;;;;9.63;3.35;;;;;;;;;;5020370;28;20022;-70
2023/10/07 13:07:03;;;;;;;13.95;4.72;;;;;;;;;;5023835;28;20029;-71
2023/10/07 13:09:33;;;;;;;11.55;3.70;;;;;;;;;;5024122;28;20793;-70
2023/10/07 13:12:00;;;;;;;8.07;3.95;;;;;;;;;;5027003;28;20040;-70
2023/10/07 13:14:27;;;;;;;8.95;4.28;;;;;;;;;;5031289;28;20037;-70
2023/10/07 13:16:59;;;;;;;7.05;3.88;;;;;;;;;;5026273;28;20036;-70
2023/10/07 13:19:26;;;;;;;5.88;3.70;;;;;;;;;;5021241;28;20037;-70
2023/10/07 13:22:05;;;;;;;10.35;5.13;;;;;;;;;;5024428;28;20029;-70
2023/10/07 13:24:31;;;;;;;10.40;3.85;;;;;;;;;;5022788;28;20025;-70
2023/10/07 13:26:58;;;;;;;8.38;3.80;;;;;;;;;;5023231;28;20025;-70
2023/10/07 13:29:24;;;;;;;12.20;5.25;;;;;;;;;;5019495;28;20432;-71
2023/10/07 13:31:52;;;;;;;7.13;3.47;;;;;;;;;;5021294;28;20377;-70
2023/10/07 13:34:19;;;;;;;7.50;4.70;;;;;;;;;;5025401;28;20076;-70
2023/10/07 13:36:45;;;;;;;9.77;3.88;;;;;;;;;;5022047;28;20124;-71
2023/10/07 13:39:17;;;;;;;10.00;4.72;;;;;;;;;;5015428;28;20034;-70
2023/10/07 13:41:47;;;;;;;10.38;3.85;;;;;;;;;;5023423;28;20041;-71
2023/10/07 13:44:16;;;;;;;10.07;3.53;;;;;;;;;;5017434;28;20026;-70
2023/10/07 13:46:42;;;;;;;10.13;3.97;;;;;;;;;;5018827;28;20021;-70
2023/10/07 13:49:13;;;;;;;10.35;3.80;;;;;;;;;;5020983;28;20065;-70
2023/10/07 13:51:43;;;;;;;7.55;3.80;;;;;;;;;;5020015;28;20490;-70
2023/10/07 13:54:22;;;;;;;11.75;3.88;;;;;;;;;;5018197;28;20417;-70
2023/10/07 13:56:53;;;;;;;13.80;4.78;;;;;;;;;;5017471;28;20033;-71
2023/10/07 13:59:19;;;;;;;7.75;4.70;;;;;;;;;;5016848;28;20021;-70
2023/10/07 14:01:46;;;;;;;8.32;3.60;;;;;;;;;;5021898;28;20037;-70
2023/10/07 14:04:18;;;;;;;12.55;5.97;;;;;;;;;;5020260;28;20064;-68
2023/10/07 14:06:44;;;;;;;11.35;4.43;;;;;;;;;;5019029;28;20120;-69
2023/10/07 14:09:23;;;;;;;9.45;4.05;;;;;;;;;;5019652;28;20029;-70
2023/10/07 14:11:50;;;;;;;9.50;4.13;;;;;;;;;;5014854;28;20029;-69
2023/10/07 14:14:16;;;;;;;12.95;4.10;;;;;;;;;;5017282;28;20847;-69
2023/10/07 14:16:42;;;;;;;7.80;4.05;;;;;;;;;;5015985;28;20063;-69
2023/10/07 14:19:08;;;;;;;14.70;4.85;;;;;;;;;;5020385;28;20079;-69
2023/10/07 14:21:35;;;;;;;10.38;4.10;;;;;;;;;;5014324;28;20037;-68
2023/10/07 14:24:04;;;;;;;11.95;4.53;;;;;;;;;;5016517;28;20026;-68
2023/10/07 14:26:34;;;;;;;10.45;4.68;;;;;;;;;;5013751;28;20030;-69
2023/10/07 14:29:07;;;;;;;8.30;3.58;;;;;;;;;;5018350;28;20554;-69
2023/10/07 14:31:37;;;;;;;8.27;4.15;;;;;;;;;;5022582;28;20087;-69
2023/10/07 14:34:07;;;;;;;8.88;4.43;;;;;;;;;;5019338;28;20030;-69
2023/10/07 14:36:34;;;;;;;11.73;4.30;;;;;;;;;;5029030;28;20039;-69
2023/10/07 14:39:00;;;;;;;8.00;4.35;;;;;;;;;;5020028;28;20104;-69
2023/10/07 14:41:30;;;;;;;8.73;3.92;;;;;;;;;;4963867;28;1683305;-69
2023/10/07 14:43:56;;;;;;;9.43;4.60;;;;;;;;;;5019290;28;20026;-69
2023/10/07 14:46:22;;;;;;;9.93;5.32;;;;;;;;;;5020541;28;20485;-69
2023/10/07 14:48:49;;;;;;;9.38;4.32;;;;;;;;;;5013041;28;20441;-70
2023/10/07 14:51:18;;;;;;;10.68;4.32;;;;;;;;;;5019861;28;20347;-69
2023/10/07 14:53:44;;;;;;;8.55;4.30;;;;;;;;;;5017621;28;20029;-69
2023/10/07 14:56:16;;;;;;;13.05;4.47;;;;;;;;;;5017972;28;20025;-70
2023/10/07 14:58:42;;;;;;;10.75;4.80;;;;;;;;;;5021592;28;20029;-68
2023/10/07 15:01:12;;;;;;;13.65;4.30;;;;;;;;;;5021366;28;20057;-69
2023/10/07 15:03:39;;;;;;;10.18;4.32;;;;;;;;;;5021271;28;21976;-69
2023/10/07 15:06:08;;;;;;;8.27;4.30;;;;;;;;;;5020426;28;20025;-69
2023/10/07 15:08:35;;;;;;;11.63;4.50;;;;;;;;;;5018679;28;20036;-69
2023/10/07 15:11:04;;;;;;;10.40;4.88;;;;;;;;;;5018757;28;20040;-69
2023/10/07 15:13:31;;;;;;;7.28;4.10;;;;;;;;;;5019293;28;20143;-69
2023/10/07 15:15:59;;;;;;;15.38;5.03;;;;;;;;;;5005615;28;20044;-68
2023/10/07 15:18:25;;;;;;;13.07;4.82;;;;;;;;;;5032937;28;20091;-69
2023/10/07 15:20:52;;;;;;;9.43;4.63;;;;;;;;;;5012118;28;20038;-70
2023/10/07 15:23:18;;;;;;;10.85;4.22;;;;;;;;;;5018167;28;20048;-69
2023/10/07 15:25:48;;;;;;;13.18;4.55;;;;;;;;;;5012083;28;20832;-69
2023/10/07 15:28:14;;;;;;;12.50;4.95;;;;;;;;;;5012881;28;20071;-69
2023/10/07 15:30:49;;;;;;;9.75;5.00;;;;;;;;;;5018836;28;20025;-69